Time;durP1;ratioP1;P1;durP2;ratioP2;P2;SDS_P1;SDS_P2;PMS_P1;PMS_P2;Temp;Humidity;BMP_temperature;BMP_pressure;BME280_temperature;BME280_humidity;BME280_pressure;Samples;Min_cycle;Max_cycle;Signal;HPM_P1;HPM_P2
2020/12/06 00:01:56;;;;;;;;;;;;;;;3.93;96.33;93344.84;5135922;27;20357;-90
2020/12/06 00:07:25;;;;;;;;;;;;;;;4.01;96.57;93344.81;5135987;27;19956;-87
2020/12/06 00:09:52;;;;;;;;;;;;;;;4.07;96.08;93343.34;5135062;27;19923;-87
2020/12/06 00:12:18;;;;;;;;;;;;;;;4.09;96.55;93349.06;5135502;27;19924;-87
2020/12/06 00:14:44;;;;;;;;;;;;;;;4.04;96.52;93346.22;5136414;27;19919;-87
2020/12/06 00:17:10;;;;;;;;;;;;;;;4.08;96.70;93342.41;5135481;27;19919;-87
2020/12/06 00:19:36;;;;;;;;;;;;;;;4.13;95.71;93346.00;5135230;27;19919;-86
2020/12/06 00:22:02;;;;;;;;;;;;;;;4.20;95.83;93350.44;5135903;27;19919;-87
2020/12/06 00:24:28;;;;;;;;;;;;;;;4.23;96.38;93352.66;5134457;27;19919;-87
2020/12/06 00:26:57;;;;;;;;;;;;;;;4.24;96.55;93349.94;5135493;27;20380;-87
2020/12/06 00:29:23;;;;;;;;;;;;;;;4.27;96.75;93348.81;5135774;27;19923;-88
2020/12/06 00:31:49;;;;;;;;;;;;;;;4.32;96.50;93344.03;5134053;27;19927;-88
2020/12/06 00:34:16;;;;;;;;;;;;;;;4.35;96.09;93345.44;5135489;27;19923;-87
2020/12/06 00:36:42;;;;;;;;;;;;;;;4.38;95.77;93348.44;5135283;27;19926;-87
2020/12/06 00:39:08;;;;;;;;;;;;;;;4.35;96.25;93353.84;5136484;27;19930;-87
2020/12/06 00:41:34;;;;;;;;;;;;;;;4.40;97.04;93351.59;5134686;27;20312;-87
2020/12/06 00:44:07;;;;;;;;;;;;;;;4.35;97.95;93346.22;5135346;27;19919;-87
2020/12/06 00:46:34;;;;;;;;;;;;;;;4.36;96.69;93350.34;5134642;27;19920;-87
2020/12/06 00:49:00;;;;;;;;;;;;;;;4.37;95.72;93354.50;5134118;27;19920;-86
2020/12/06 00:51:26;;;;;;;;;;;;;;;4.37;96.14;93351.16;5135561;27;19919;-87
2020/12/06 00:53:52;;;;;;;;;;;;;;;4.35;99.55;93348.00;5134447;27;19919;-86
2020/12/06 00:56:18;;;;;;;;;;;;;;;4.39;100.00;93337.31;5134570;27;19928;-87
2020/12/06 00:58:45;;;;;;;;;;;;;;;4.46;99.16;93346.78;5133519;27;19919;-88
2020/12/06 01:01:12;;;;;;;;;;;;;;;4.48;97.12;93339.78;5132972;27;19980;-88
2020/12/06 01:03:38;;;;;;;;;;;;;;;4.45;96.02;93340.13;5133523;27;19919;-87
2020/12/06 01:06:06;;;;;;;;;;;;;;;4.46;95.58;93342.50;5133732;27;19919;-88
2020/12/06 01:08:32;;;;;;;;;;;;;;;4.47;95.75;93345.84;5133762;27;19990;-88
2020/12/06 01:10:58;;;;;;;;;;;;;;;4.46;95.25;93342.50;5133239;28;19924;-88
2020/12/06 01:13:24;;;;;;;;;;;;;;;4.40;96.14;93338.88;5133155;27;19919;-88
2020/12/06 01:15:50;;;;;;;;;;;;;;;4.40;95.54;93338.88;5134623;28;19920;-88
2020/12/06 01:18:16;;;;;;;;;;;;;;;4.38;96.27;93330.63;5134067;28;19919;-87
2020/12/06 01:20:42;;;;;;;;;;;;;;;4.39;97.34;93329.66;5134724;28;19927;-87
2020/12/06 01:23:09;;;;;;;;;;;;;;;4.35;97.29;93330.19;5134894;28;19920;-88
2020/12/06 01:25:35;;;;;;;;;;;;;;;4.43;96.80;93334.44;5135086;28;19923;-87
2020/12/06 01:28:01;;;;;;;;;;;;;;;4.47;96.61;93330.56;5135251;28;19926;-86
2020/12/06 01:30:27;;;;;;;;;;;;;;;4.48;96.90;93327.88;5135293;28;20027;-87
2020/12/06 01:32:53;;;;;;;;;;;;;;;4.47;97.03;93325.47;5134870;28;19926;-87
2020/12/06 01:35:20;;;;;;;;;;;;;;;4.48;97.45;93322.78;5134517;28;19919;-87
2020/12/06 01:37:46;;;;;;;;;;;;;;;4.53;97.42;93324.81;5135906;28;19919;-87
2020/12/06 01:40:11;;;;;;;;;;;;;;;4.59;97.53;93320.81;5134646;28;19919;-87
2020/12/06 01:42:37;;;;;;;;;;;;;;;4.66;96.02;93317.41;5134646;28;19942;-87
2020/12/06 01:45:04;;;;;;;;;;;;;;;4.68;96.06;93310.38;5133605;28;19919;-86
2020/12/06 01:47:31;;;;;;;;;;;;;;;4.72;97.24;93307.53;5135262;27;19923;-87
2020/12/06 01:49:57;;;;;;;;;;;;;;;4.70;97.65;93307.69;5134480;28;20296;-87
2020/12/06 01:52:26;;;;;;;;;;;;;;;4.70;97.46;93317.06;5134186;28;19920;-87
2020/12/06 01:54:52;;;;;;;;;;;;;;;4.62;96.88;93306.00;5133722;28;20315;-88
2020/12/06 01:57:18;;;;;;;;;;;;;;;4.70;98.07;93302.59;5134291;28;19972;-87
2020/12/06 02:02:44;;;;;;;;;;;;;;;4.86;96.20;93309.28;5134249;28;20027;-87
2020/12/06 02:05:10;;;;;;;;;;;;;;;4.88;96.21;93304.03;5135559;28;19920;-87
2020/12/06 02:07:38;;;;;;;;;;;;;;;4.92;95.42;93302.75;5135936;27;19919;-86
2020/12/06 02:12:50;;;;;;;;;;;;;;;5.00;95.42;93286.59;5118310;27;20010;-86
2020/12/06 02:15:16;;;;;;;;;;;;;;;4.98;95.08;93291.88;5138322;27;20349;-86
2020/12/06 02:17:42;;;;;;;;;;;;;;;5.01;94.44;93293.28;5138501;27;20353;-87
2020/12/06 02:20:09;;;;;;;;;;;;;;;5.03;94.63;93287.06;5137997;27;19920;-87
2020/12/06 02:22:35;;;;;;;;;;;;;;;5.03;94.40;93292.16;5138839;27;19923;-87
2020/12/06 02:25:01;;;;;;;;;;;;;;;4.98;94.56;93293.59;5137955;27;19942;-87
2020/12/06 02:30:39;;;;;;;;;;;;;;;4.88;94.28;93289.56;5138197;27;20339;-87
2020/12/06 02:33:05;;;;;;;;;;;;;;;4.87;94.58;93289.75;5138904;27;19927;-87
2020/12/06 02:35:32;;;;;;;;;;;;;;;4.90;94.94;93291.94;5137635;27;20022;-87
2020/12/06 02:37:58;;;;;;;;;;;;;;;4.88;95.13;93289.56;5136830;27;20009;-88
2020/12/06 02:40:24;;;;;;;;;;;;;;;4.89;95.11;93293.69;5136490;27;19926;-88
2020/12/06 02:42:50;;;;;;;;;;;;;;;4.88;95.53;93291.31;5136739;27;19919;-88
2020/12/06 02:45:16;;;;;;;;;;;;;;;4.89;96.17;93286.06;5137761;27;19920;-87
2020/12/06 02:47:42;;;;;;;;;;;;;;;4.89;95.98;93286.06;5137432;27;19919;-88
2020/12/06 02:50:08;;;;;;;;;;;;;;;4.92;95.89;93279.84;5137417;27;19920;-87
2020/12/06 02:52:51;;;;;;;;;;;;;;;4.92;96.38;93277.28;5138605;27;19964;-87
2020/12/06 02:55:20;;;;;;;;;;;;;;;4.80;97.89;93282.78;5137965;27;19964;-87
2020/12/06 02:57:46;;;;;;;;;;;;;;;4.84;97.68;93277.34;5129675;27;19920;-87
2020/12/06 03:00:18;;;;;;;;;;;;;;;4.92;96.79;93282.38;5117617;28;19926;-87
2020/12/06 03:02:45;;;;;;;;;;;;;;;5.00;95.94;93277.19;5116795;28;19919;-87
2020/12/06 03:05:11;;;;;;;;;;;;;;;4.99;96.16;93269.75;5116459;28;19920;-87
2020/12/06 03:07:37;;;;;;;;;;;;;;;5.05;95.63;93272.38;5115326;28;19919;-88
2020/12/06 03:10:06;;;;;;;;;;;;;;;5.08;95.09;93266.16;5114979;28;19923;-87
2020/12/06 03:12:32;;;;;;;;;;;;;;;5.06;96.19;93273.19;5120802;27;19919;-87
2020/12/06 03:14:58;;;;;;;;;;;;;;;5.06;95.74;93271.41;5138233;27;19920;-88
2020/12/06 03:17:24;;;;;;;;;;;;;;;5.08;96.14;93264.41;5136879;27;20265;-88
2020/12/06 03:19:53;;;;;;;;;;;;;;;5.10;97.03;93253.25;5137603;27;19920;-88
2020/12/06 03:25:23;;;;;;;;;;;;;;;5.19;95.80;93267.50;5136905;27;20289;-89
2020/12/06 03:27:49;;;;;;;;;;;;;;;5.21;95.98;93268.09;5134977;27;19926;-90
2020/12/06 03:30:15;;;;;;;;;;;;;;;5.23;95.77;93268.69;5135507;27;19923;-89
2020/12/06 03:32:41;;;;;;;;;;;;;;;5.25;95.02;93266.00;5136547;27;19919;-90
2020/12/06 03:35:07;;;;;;;;;;;;;;;5.27;94.85;93269.16;5134721;27;19930;-90
2020/12/06 03:37:33;;;;;;;;;;;;;;;5.26;95.05;93265.81;5135303;27;19919;-90
2020/12/06 03:39:59;;;;;;;;;;;;;;;5.27;95.01;93274.25;5135089;27;19926;-90
2020/12/06 03:42:26;;;;;;;;;;;;;;;5.25;95.20;93264.25;5135201;27;19919;-91
2020/12/06 03:44:52;;;;;;;;;;;;;;;5.22;95.11;93269.69;5134948;27;19919;-89
2020/12/06 03:47:18;;;;;;;;;;;;;;;5.26;96.32;93267.56;5135642;27;19927;-89
2020/12/06 03:49:44;;;;;;;;;;;;;;;5.25;96.70;93258.34;5137237;27;19926;-89
2020/12/06 03:52:10;;;;;;;;;;;;;;;5.31;95.84;93268.63;5135024;27;19926;-89
2020/12/06 03:54:36;;;;;;;;;;;;;;;5.26;95.85;93270.09;5134403;27;20373;-89
2020/12/06 03:57:02;;;;;;;;;;;;;;;5.28;95.94;93263.88;5134236;27;19964;-89
2020/12/06 03:59:29;;;;;;;;;;;;;;;5.25;96.37;93258.34;5134899;27;19919;-89
2020/12/06 04:01:55;;;;;;;;;;;;;;;5.20;97.51;93258.88;5134980;27;20797;-89
2020/12/06 04:04:21;;;;;;;;;;;;;;;5.24;97.28;93264.41;5134697;27;19919;-89
2020/12/06 04:06:47;;;;;;;;;;;;;;;5.25;96.51;93273.63;5133937;27;19920;-89
2020/12/06 04:09:13;;;;;;;;;;;;;;;5.29;96.07;93270.56;5134188;27;19927;-89
2020/12/06 04:11:39;;;;;;;;;;;;;;;5.30;96.70;93263.72;5134296;27;19919;-89
2020/12/06 04:17:09;;;;;;;;;;;;;;;5.32;97.33;93267.66;5135938;27;19922;-89
2020/12/06 04:19:35;;;;;;;;;;;;;;;5.40;96.20;93276.19;5136805;27;19976;-89
2020/12/06 04:22:05;;;;;;;;;;;;;;;5.47;96.07;93271.97;5135664;27;20296;-89
2020/12/06 04:31:21;;;;;;;;;;;;;;;5.49;96.04;93267.47;5133502;27;20409;-89
2020/12/06 04:40:14;;;;;;;;;;;;;;;5.52;95.82;93264.59;5137157;27;19981;-89
2020/12/06 04:45:43;;;;;;;;;;;;;;;5.53;96.79;93261.06;5131633;27;19922;-89
2020/12/06 04:48:09;;;;;;;;;;;;;;;5.55;96.44;93264.22;5116044;28;19927;-89
2020/12/06 04:50:36;;;;;;;;;;;;;;;5.58;96.07;93268.19;5111958;28;19923;-90
2020/12/06 04:53:04;;;;;;;;;;;;;;;5.63;95.90;93271.00;5106775;28;19920;-89
2020/12/06 04:55:32;;;;;;;;;;;;;;;5.67;95.18;93274.78;5114905;28;19920;-89
2020/12/06 05:04:10;;;;;;;;;;;;;;;5.71;95.60;93275.19;5114803;28;19967;-89
2020/12/06 05:06:37;;;;;;;;;;;;;;;5.36;97.31;93273.19;5114712;28;19962;-89
2020/12/06 05:09:04;;;;;;;;;;;;;;;5.46;97.70;93278.81;5111988;28;19943;-88
2020/12/06 05:14:37;;;;;;;;;;;;;;;5.52;96.06;93284.97;5105309;28;20364;-89
2020/12/06 05:20:27;;;;;;;;;;;;;;;4.67;100.00;93285.13;5113970;28;19943;-89
2020/12/06 05:22:54;;;;;;;;;;;;;;;4.97;100.00;93292.03;5113985;28;20274;-89
2020/12/06 05:25:20;;;;;;;;;;;;;;;5.08;99.58;93289.06;5112997;28;19973;-89
2020/12/06 05:27:50;;;;;;;;;;;;;;;4.71;100.00;93286.34;5115353;28;20316;-89
2020/12/06 05:30:18;;;;;;;;;;;;;;;4.75;100.00;93287.59;5115793;28;19920;-89
2020/12/06 05:32:44;;;;;;;;;;;;;;;4.94;100.00;93293.97;5114652;28;19920;-89
2020/12/06 05:35:10;;;;;;;;;;;;;;;5.00;99.56;93292.47;5115014;28;20312;-89
2020/12/06 05:40:43;;;;;;;;;;;;;;;4.68;100.00;93291.81;5094189;28;20385;-89
2020/12/06 05:43:09;;;;;;;;;;;;;;;4.86;100.00;93301.66;5097863;28;20385;-89
2020/12/06 05:45:37;;;;;;;;;;;;;;;5.02;100.00;93307.59;5097734;28;19924;-88
2020/12/06 05:48:04;;;;;;;;;;;;;;;4.99;99.89;93311.25;5098627;28;19927;-89
2020/12/06 05:50:31;;;;;;;;;;;;;;;5.04;100.00;93305.66;5114008;28;19940;-89
2020/12/06 05:52:58;;;;;;;;;;;;;;;4.80;100.00;93310.00;5114280;28;19924;-88
2020/12/06 06:01:55;;;;;;;;;;;;;;;4.66;100.00;93311.53;5098772;28;19919;-88
2020/12/06 06:07:26;;;;;;;;;;;;;;;5.03;100.00;93326.97;5097864;28;20381;-88
2020/12/06 06:09:58;;;;;;;;;;;;;;;5.17;100.00;93323.69;5114018;28;19923;-87
2020/12/06 06:12:31;;;;;;;;;;;;;;;5.27;100.00;93327.75;5115581;28;19920;-89
2020/12/06 06:14:59;;;;;;;;;;;;;;;5.21;100.00;93329.22;5113940;28;19924;-89
2020/12/06 06:17:30;;;;;;;;;;;;;;;5.20;100.00;93336.06;5120043;28;19923;-89
2020/12/06 06:19:56;;;;;;;;;;;;;;;5.31;100.00;93328.97;5117540;28;19924;-89
2020/12/06 06:22:26;;;;;;;;;;;;;;;5.41;99.39;93316.75;5118621;28;19920;-89
2020/12/06 06:28:15;;;;;;;;;;;;;;;5.41;99.86;93319.31;5096184;28;19916;-88
2020/12/06 06:30:42;;;;;;;;;;;;;;;5.54;99.65;93323.81;5097233;28;19920;-89
2020/12/06 06:33:12;;;;;;;;;;;;;;;5.32;100.00;93328.03;5098284;28;19926;-88
2020/12/06 06:35:42;;;;;;;;;;;;;;;5.44;100.00;93318.16;5096937;28;19920;-88
2020/12/06 06:38:09;;;;;;;;;;;;;;;5.52;99.20;93320.66;5097661;28;19926;-88
2020/12/06 06:40:36;;;;;;;;;;;;;;;5.57;98.87;93325.22;5097232;28;19924;-88
2020/12/06 06:43:03;;;;;;;;;;;;;;;5.64;98.90;93318.44;5096969;28;19920;-87
2020/12/06 06:45:32;;;;;;;;;;;;;;;5.62;99.63;93323.69;5098319;28;19920;-88
2020/12/06 06:47:58;;;;;;;;;;;;;;;5.74;99.11;93316.41;5096545;28;19973;-88
2020/12/06 06:50:54;;;;;;;;;;;;;;;5.81;99.07;93313.97;5096626;28;19927;-89
2020/12/06 06:59:42;;;;;;;;;;;;;;;6.07;98.38;93311.94;5098306;28;19923;-90
2020/12/06 07:02:13;;;;;;;;;;;;;;;6.15;98.27;93309.25;5117795;28;19919;-89
2020/12/06 07:04:45;;;;;;;;;;;;;;;6.24;98.08;93312.50;5116741;28;19973;-90
2020/12/06 07:07:12;;;;;;;;;;;;;;;6.00;98.31;93307.50;5121361;27;19919;-88
2020/12/06 07:09:38;;;;;;;;;;;;;;;6.00;99.23;93312.63;5137047;27;20266;-88
2020/12/06 07:12:04;;;;;;;;;;;;;;;6.18;98.75;93321.66;5136831;27;20319;-87
2020/12/06 07:14:30;;;;;;;;;;;;;;;6.25;98.56;93316.66;5116183;27;19928;-86
2020/12/06 07:16:58;;;;;;;;;;;;;;;6.24;98.20;93313.28;5095923;28;20362;-87
2020/12/06 07:19:24;;;;;;;;;;;;;;;6.24;98.02;93312.50;5096823;28;19927;-87
2020/12/06 07:21:50;;;;;;;;;;;;;;;6.19;98.08;93310.50;5095805;28;19920;-87
2020/12/06 07:24:17;;;;;;;;;;;;;;;6.11;99.04;93301.19;5096096;28;19920;-87
2020/12/06 07:26:43;;;;;;;;;;;;;;;6.24;99.04;93312.50;5095925;28;19924;-88
2020/12/06 07:29:09;;;;;;;;;;;;;;;6.33;98.72;93308.06;5095762;28;19920;-88
2020/12/06 07:31:36;;;;;;;;;;;;;;;6.38;98.55;93304.00;5095897;28;19932;-87
2020/12/06 07:34:03;;;;;;;;;;;;;;;6.48;98.47;93300.38;5095682;28;19920;-88
2020/12/06 07:36:30;;;;;;;;;;;;;;;6.47;98.39;93297.03;5095753;28;19920;-89
2020/12/06 07:38:56;;;;;;;;;;;;;;;6.59;98.92;93306.75;5094130;28;19920;-89
2020/12/06 07:41:22;;;;;;;;;;;;;;;6.68;98.35;93298.78;5095111;28;19927;-89
2020/12/06 07:43:52;;;;;;;;;;;;;;;6.79;98.38;93296.72;5094625;28;19919;-88
2020/12/06 07:46:19;;;;;;;;;;;;;;;6.85;98.61;93292.66;5094988;28;19920;-86
2020/12/06 07:48:45;;;;;;;;;;;;;;;6.88;98.67;93295.63;5095914;28;19920;-87
2020/12/06 07:51:12;;;;;;;;;;;;;;;7.01;97.40;93297.50;5096779;28;19920;-88
2020/12/06 07:53:48;;;;;;;;;;;;;;;7.10;97.73;93298.16;5095169;28;19940;-88
2020/12/06 07:56:18;;;;;;;;;;;;;;;7.12;97.74;93291.06;5096765;28;19959;-88
2020/12/06 07:58:48;;;;;;;;;;;;;;;7.21;97.51;93282.31;5096290;28;19920;-89
2020/12/06 08:01:14;;;;;;;;;;;;;;;7.30;97.25;93282.94;5099601;28;19965;-88
2020/12/06 08:03:54;;;;;;;;;;;;;;;7.39;96.86;93283.59;5095247;28;19927;-88
2020/12/06 08:09:14;;;;;;;;;;;;;;;7.63;95.87;93289.22;5095489;28;20061;-89
2020/12/06 08:11:43;;;;;;;;;;;;;;;7.72;95.67;93285.53;5094997;28;20407;-88
2020/12/06 08:14:37;;;;;;;;;;;;;;;7.79;95.49;93275.34;5095788;28;19924;-89
2020/12/06 08:20:26;;;;;;;;;;;;;;;8.01;95.30;93275.22;5095369;28;19923;-89
2020/12/06 08:22:53;;;;;;;;;;;;;;;8.08;95.22;93277.78;5094780;28;19920;-89
2020/12/06 08:25:20;;;;;;;;;;;;;;;8.16;94.18;93275.84;5095808;28;19920;-88
2020/12/06 08:44:00;;;;;;;;;;;;;;;8.55;93.12;93253.13;5072697;28;19916;-90
2020/12/06 08:46:27;;;;;;;;;;;;;;;8.72;92.55;93246.81;5071719;28;20039;-90
2020/12/06 08:48:54;;;;;;;;;;;;;;;8.83;92.46;93246.22;5072342;28;20015;-89
2020/12/06 08:51:27;;;;;;;;;;;;;;;8.95;91.78;93252.31;5072661;28;19928;-89
2020/12/06 08:53:54;;;;;;;;;;;;;;;9.02;91.02;93249.75;5094087;28;19927;-88
2020/12/06 08:56:24;;;;;;;;;;;;;;;9.07;90.92;93256.84;5097058;28;19970;-89
2020/12/06 08:59:18;;;;;;;;;;;;;;;9.19;90.73;93251.91;5094732;28;19924;-89
2020/12/06 09:01:49;;;;;;;;;;;;;;;9.05;91.39;93251.94;5072530;28;19920;-88
2020/12/06 09:04:15;;;;;;;;;;;;;;;9.05;93.05;93254.50;5075355;28;19975;-90
2020/12/06 09:06:41;;;;;;;;;;;;;;;8.92;92.99;93247.59;5073953;28;19974;-88
2020/12/06 09:09:07;;;;;;;;;;;;;;;8.68;94.20;93246.41;5075080;28;19928;-89
2020/12/06 09:11:33;;;;;;;;;;;;;;;8.58;95.19;93248.56;5074421;28;19921;-87
2020/12/06 09:13:59;;;;;;;;;;;;;;;8.38;96.46;93242.41;5088294;28;19920;-87
2020/12/06 09:16:25;;;;;;;;;;;;;;;8.46;97.13;93231.22;5107275;28;19927;-90
2020/12/06 09:18:52;;;;;;;;;;;;;;;8.38;97.38;93239.84;5115604;28;20304;-89
2020/12/06 09:21:18;;;;;;;;;;;;;;;8.46;96.96;93222.75;5114659;28;19919;-89
2020/12/06 09:23:45;;;;;;;;;;;;;;;8.53;97.24;93218.44;5114688;28;19919;-89
2020/12/06 09:41:45;;;;;;;;;;;;;;;9.11;92.82;93211.13;5085273;28;19916;-90
2020/12/06 09:44:14;;;;;;;;;;;;;;;9.20;91.84;93209.91;5076094;28;19920;-93
2020/12/06 09:46:40;;;;;;;;;;;;;;;9.29;91.47;93208.72;5082575;28;19920;-90
2020/12/06 09:49:06;;;;;;;;;;;;;;;9.21;91.05;93207.16;5074646;28;19925;-90
2020/12/06 09:51:32;;;;;;;;;;;;;;;9.30;90.56;93199.25;5074990;28;19921;-91
2020/12/06 09:54:00;;;;;;;;;;;;;;;9.17;90.37;93194.94;5073566;28;19920;-90
2020/12/06 09:56:27;;;;;;;;;;;;;;;9.02;92.32;93195.19;5073867;28;19921;-90
2020/12/06 09:58:54;;;;;;;;;;;;;;;9.23;92.62;93201.81;5074414;28;19920;-90
2020/12/06 10:01:21;;;;;;;;;;;;;;;9.25;92.00;93194.72;5091892;28;20350;-90
2020/12/06 10:04:14;;;;;;;;;;;;;;;9.15;92.23;93192.56;5094072;28;19920;-89
2020/12/06 10:09:43;;;;;;;;;;;;;;;9.09;91.99;93176.22;5093775;28;20049;-90
2020/12/06 10:12:28;;;;;;;;;;;;;;;8.91;95.43;93176.88;5094457;28;20350;-90
2020/12/06 10:18:00;;;;;;;;;;;;;;;8.85;94.30;93157.19;5089627;28;20071;-90
2020/12/06 10:20:26;;;;;;;;;;;;;;;8.99;94.23;93160.50;5094328;28;19924;-88
2020/12/06 10:22:52;;;;;;;;;;;;;;;9.15;91.86;93163.59;5094250;28;19920;-89
2020/12/06 10:25:18;;;;;;;;;;;;;;;8.78;92.15;93159.75;5093592;28;19927;-89
2020/12/06 10:27:44;;;;;;;;;;;;;;;8.72;93.30;93155.41;5094151;28;19920;-89
2020/12/06 10:30:11;;;;;;;;;;;;;;;8.51;93.43;93159.72;5098159;28;19927;-90
2020/12/06 10:32:37;;;;;;;;;;;;;;;8.71;93.86;93158.16;5097103;28;19920;-89
2020/12/06 10:35:11;;;;;;;;;;;;;;;8.95;93.62;93154.19;5097915;28;19927;-89
2020/12/06 10:37:37;;;;;;;;;;;;;;;9.08;92.48;93140.56;5097519;28;19927;-90
2020/12/06 10:40:03;;;;;;;;;;;;;;;9.01;92.33;93150.81;5097163;28;19920;-90
2020/12/06 10:42:29;;;;;;;;;;;;;;;9.23;91.43;93151.34;5098259;28;19920;-89
2020/12/06 10:44:55;;;;;;;;;;;;;;;9.19;90.45;93147.63;5096486;28;19920;-90
2020/12/06 10:47:21;;;;;;;;;;;;;;;9.31;90.14;93141.88;5101927;28;19924;-93
2020/12/06 10:49:47;;;;;;;;;;;;;;;9.31;90.57;93140.06;5105933;28;19954;-91
2020/12/06 10:52:15;;;;;;;;;;;;;;;9.38;89.84;93140.06;5106023;28;20309;-91
2020/12/06 10:54:41;;;;;;;;;;;;;;;9.47;90.03;93135.47;5104917;28;19927;-94
2020/12/06 10:57:07;;;;;;;;;;;;;;;9.59;89.70;93135.63;5099040;28;19920;-90
2020/12/06 10:59:35;;;;;;;;;;;;;;;9.54;88.24;93132.91;5103038;28;19920;-91
2020/12/06 11:02:01;;;;;;;;;;;;;;;9.51;88.35;93128.97;5118948;27;19923;-91
2020/12/06 11:04:27;;;;;;;;;;;;;;;9.57;88.44;93122.22;5117175;28;19919;-91
2020/12/06 11:06:56;;;;;;;;;;;;;;;9.50;89.33;93119.69;5117841;28;19920;-91
2020/12/06 11:09:23;;;;;;;;;;;;;;;9.31;90.02;93119.56;5115836;28;19986;-91
2020/12/06 11:11:50;;;;;;;;;;;;;;;9.24;90.40;93116.25;5116309;28;20455;-90
2020/12/06 11:14:16;;;;;;;;;;;;;;;9.12;91.78;93117.88;5116127;28;19920;-90
2020/12/06 11:16:42;;;;;;;;;;;;;;;9.18;90.98;93117.88;5110808;27;19920;-90
2020/12/06 11:19:08;;;;;;;;;;;;;;;9.17;90.72;93116.28;5116011;28;19926;-90
2020/12/06 11:21:34;;;;;;;;;;;;;;;9.18;90.83;93106.81;5115683;28;19920;-92
2020/12/06 11:24:00;;;;;;;;;;;;;;;9.18;91.02;93104.25;5116108;28;19941;-91
2020/12/06 11:26:27;;;;;;;;;;;;;;;9.10;91.02;93107.81;5115851;28;19926;-90
2020/12/06 11:28:53;;;;;;;;;;;;;;;8.82;93.06;93111.47;5129966;27;19919;-89
2020/12/06 11:31:19;;;;;;;;;;;;;;;8.70;94.35;93108.72;5137933;27;19920;-90
2020/12/06 11:33:45;;;;;;;;;;;;;;;8.67;95.04;93106.56;5137368;27;19923;-90
2020/12/06 11:36:11;;;;;;;;;;;;;;;8.74;93.87;93097.09;5137073;27;19920;-90
2020/12/06 11:38:39;;;;;;;;;;;;;;;8.70;94.15;93098.47;5137501;27;19919;-89
2020/12/06 11:41:05;;;;;;;;;;;;;;;8.91;93.47;93094.91;5137050;27;19926;-90
2020/12/06 11:43:32;;;;;;;;;;;;;;;8.93;93.65;93094.66;5136653;27;19931;-90
2020/12/06 11:45:58;;;;;;;;;;;;;;;9.13;93.00;93094.63;5136951;27;20017;-90
2020/12/06 11:48:24;;;;;;;;;;;;;;;9.25;91.96;93093.97;5136786;27;19965;-90
2020/12/06 11:50:50;;;;;;;;;;;;;;;9.18;92.42;93096.56;5138877;27;19927;-90
2020/12/06 11:53:16;;;;;;;;;;;;;;;9.07;93.33;93098.78;5138161;27;19968;-91
2020/12/06 11:55:57;;;;;;;;;;;;;;;9.15;93.68;93094.41;5125494;27;19926;-91
2020/12/06 11:58:23;;;;;;;;;;;;;;;9.12;93.57;93093.03;5115840;28;20380;-91
2020/12/06 12:00:50;;;;;;;;;;;;;;;9.00;94.45;93086.97;5116713;28;19920;-90
2020/12/06 12:03:16;;;;;;;;;;;;;;;9.07;94.96;93085.97;5116033;28;20290;-91
2020/12/06 12:05:42;;;;;;;;;;;;;;;9.28;93.60;93096.91;5116726;28;20227;-90
2020/12/06 12:08:08;;;;;;;;;;;;;;;9.49;91.91;93087.34;5116384;28;19920;-90
2020/12/06 12:10:34;;;;;;;;;;;;;;;9.52;92.25;93086.13;5116654;28;19942;-88
2020/12/06 12:13:09;;;;;;;;;;;;;;;9.39;92.46;93092.91;5116065;28;19923;-89
2020/12/06 12:15:35;;;;;;;;;;;;;;;9.36;92.95;93080.53;5115671;28;20276;-89
2020/12/06 12:18:01;;;;;;;;;;;;;;;9.60;92.40;93073.88;5128743;27;20260;-90
2020/12/06 12:20:28;;;;;;;;;;;;;;;9.75;91.73;93078.72;5136492;27;19926;-91
2020/12/06 12:22:54;;;;;;;;;;;;;;;9.84;90.72;93079.25;5136923;27;19942;-90
2020/12/06 12:25:20;;;;;;;;;;;;;;;9.93;90.34;93071.28;5136037;27;19926;-90
2020/12/06 12:27:46;;;;;;;;;;;;;;;9.91;89.29;93066.38;5136793;27;19924;-90
2020/12/06 12:30:12;;;;;;;;;;;;;;;9.82;89.94;93060.69;5116768;27;20378;-90
2020/12/06 12:32:38;;;;;;;;;;;;;;;10.00;89.67;93057.41;5111259;28;19949;-90
2020/12/06 12:35:06;;;;;;;;;;;;;;;10.14;89.64;93057.31;5115076;28;19925;-89
2020/12/06 12:37:32;;;;;;;;;;;;;;;10.17;87.54;93056.88;5116317;28;19919;-89
2020/12/06 12:39:58;;;;;;;;;;;;;;;10.25;87.54;93059.22;5115705;28;19927;-89
2020/12/06 12:49:13;;;;;;;;;;;;;;;10.14;85.64;93044.50;5133895;27;19922;-90
2020/12/06 12:55:00;;;;;;;;;;;;;;;10.10;85.16;93033.84;5135520;27;19975;-88
2020/12/06 13:00:29;;;;;;;;;;;;;;;10.14;83.84;93032.44;5114593;28;19975;-88
2020/12/06 13:03:04;;;;;;;;;;;;;;;10.10;83.50;93033.84;5114992;28;19920;-87
2020/12/06 13:05:30;;;;;;;;;;;;;;;10.08;83.83;93022.22;5114777;28;19919;-88
2020/12/06 13:07:56;;;;;;;;;;;;;;;10.24;83.39;93020.91;5113887;28;19924;-87
2020/12/06 13:10:23;;;;;;;;;;;;;;;10.32;84.18;93019.84;5121422;27;19984;-88
2020/12/06 13:12:50;;;;;;;;;;;;;;;10.29;82.81;93023.63;5129415;27;19923;-88
2020/12/06 13:15:16;;;;;;;;;;;;;;;9.98;82.24;93013.22;5113763;28;20389;-87
2020/12/06 13:17:42;;;;;;;;;;;;;;;9.84;82.36;93011.75;5113637;28;20315;-86
2020/12/06 13:20:08;;;;;;;;;;;;;;;9.56;82.36;93016.31;5112568;28;19927;-89
2020/12/06 13:22:34;;;;;;;;;;;;;;;9.31;83.84;93019.59;5114147;28;19923;-89
2020/12/06 13:25:00;;;;;;;;;;;;;;;9.29;84.71;93010.53;5113955;28;20297;-89
2020/12/06 13:27:27;;;;;;;;;;;;;;;9.26;84.35;93004.06;5113575;28;19924;-89
2020/12/06 13:29:53;;;;;;;;;;;;;;;9.23;85.46;92997.56;5112507;28;19920;-90
2020/12/06 13:32:21;;;;;;;;;;;;;;;9.11;85.05;93004.34;5114145;28;19926;-89
2020/12/06 13:34:47;;;;;;;;;;;;;;;9.05;85.78;92998.28;5113353;28;19972;-89
2020/12/06 13:37:14;;;;;;;;;;;;;;;8.88;86.16;92997.94;5112890;28;20304;-85
2020/12/06 13:39:40;;;;;;;;;;;;;;;8.81;86.38;92995.41;5112416;28;19919;-88
2020/12/06 13:42:07;;;;;;;;;;;;;;;8.75;87.14;93001.34;5112024;28;20293;-87
2020/12/06 13:44:33;;;;;;;;;;;;;;;8.71;87.22;93002.75;5112175;28;19926;-87
2020/12/06 13:46:59;;;;;;;;;;;;;;;8.73;87.00;93012.78;5112109;28;19920;-90
2020/12/06 13:49:25;;;;;;;;;;;;;;;8.63;87.28;93011.44;5093680;28;19924;-88
2020/12/06 13:51:52;;;;;;;;;;;;;;;8.76;86.42;93004.69;5091789;28;19920;-89
2020/12/06 13:54:18;;;;;;;;;;;;;;;8.77;86.07;93019.06;5093580;28;19919;-88
2020/12/06 13:56:44;;;;;;;;;;;;;;;8.72;85.81;93017.13;5093889;28;19981;-87
2020/12/06 13:59:10;;;;;;;;;;;;;;;8.62;86.70;93024.44;5093669;28;19974;-88
2020/12/06 14:01:37;;;;;;;;;;;;;;;8.59;87.12;93029.97;5114856;27;19928;-88
2020/12/06 14:04:03;;;;;;;;;;;;;;;8.54;87.07;93028.00;5118934;28;20254;-88
2020/12/06 14:06:30;;;;;;;;;;;;;;;8.48;86.96;93028.78;5118380;28;19987;-89
2020/12/06 14:08:56;;;;;;;;;;;;;;;8.41;87.45;93031.34;5119028;28;20010;-88
2020/12/06 14:11:22;;;;;;;;;;;;;;;8.47;87.17;93033.09;5118172;28;19923;-88
2020/12/06 14:13:48;;;;;;;;;;;;;;;8.43;87.45;93037.06;5118026;28;19920;-89
2020/12/06 14:16:14;;;;;;;;;;;;;;;8.42;87.79;93036.28;5117593;28;19919;-89
2020/12/06 14:18:42;;;;;;;;;;;;;;;8.44;87.68;93033.53;5117840;28;19920;-89
2020/12/06 14:21:08;;;;;;;;;;;;;;;8.46;88.10;93035.88;5118584;28;19981;-89
2020/12/06 14:23:34;;;;;;;;;;;;;;;8.57;88.78;93034.50;5118447;28;19924;-89
2020/12/06 14:26:00;;;;;;;;;;;;;;;8.65;88.36;93037.63;5117696;28;20327;-88
2020/12/06 14:28:29;;;;;;;;;;;;;;;8.71;87.64;93037.81;5118537;28;19930;-88
2020/12/06 14:34:02;;;;;;;;;;;;;;;8.47;86.80;93022.88;5076055;28;19995;-87
2020/12/06 14:36:28;;;;;;;;;;;;;;;8.37;87.58;93027.63;5076603;28;19974;-88
2020/12/06 14:38:54;;;;;;;;;;;;;;;8.25;87.90;93020.56;5079359;28;19927;-87
2020/12/06 14:41:20;;;;;;;;;;;;;;;8.00;88.65;93023.75;5081159;28;19920;-87
2020/12/06 14:43:46;;;;;;;;;;;;;;;7.93;89.30;93019.63;5095747;28;19928;-87
2020/12/06 14:46:12;;;;;;;;;;;;;;;7.86;89.82;93022.16;5095545;28;19920;-87
2020/12/06 14:48:38;;;;;;;;;;;;;;;7.76;89.87;93025.13;5095400;28;19973;-88
2020/12/06 14:51:05;;;;;;;;;;;;;;;7.65;90.52;93020.59;5096045;28;20018;-88
2020/12/06 14:53:31;;;;;;;;;;;;;;;7.51;91.21;93015.47;5091341;28;19927;-88
2020/12/06 14:55:58;;;;;;;;;;;;;;;7.40;91.68;93011.72;5079438;28;19928;-88
2020/12/06 14:58:24;;;;;;;;;;;;;;;7.21;92.41;93008.16;5087647;28;19920;-89
2020/12/06 15:01:06;;;;;;;;;;;;;;;7.04;93.29;93010.28;5096620;28;20305;-89
2020/12/06 15:03:32;;;;;;;;;;;;;;;6.80;94.17;93015.69;5096181;28;19920;-88
2020/12/06 15:06:23;;;;;;;;;;;;;;;6.85;94.25;93020.22;5096256;28;19919;-88